Loon Lake, WA (99148)

12:05 PM PDT on July 26, 2016 (GMT -0700)
APRSWXNET | | Change Station

Elev 2181 ft 47.91 °N, 117.55 °W | Updated 33 minutes ago

Overcast
Overcast
76 °F
Feels Like 78 °F
N
1
Wind Variable Wind from NNE
Gusts 3.0 mph

Today
High -- | Low -- °F
--% Chance of Precip.
Yesterday
High -- | Low -- °F
Precip. -- in
Pressure 30.04 in
Visibility 9.0 miles
Clouds Few 3400 ft
Scattered Clouds 6500 ft
Mostly Cloudy 11000 ft
Heat Index 78 °F
Dew Point 58 °F
Humidity 54%
Rainfall in
Snow Depth Not available.
5:19 AM 8:33 PM
Waning Gibbous, 52% visible
METAR KDEW 261853Z AUTO 10004KT 9SM -RA FEW034 SCT065 BKN110 21/17 A3006 RMK AO2 LTG DSNT SE AND W RAB06E28B39 TSE32 SLP171 P0020 T02060167
Pressure 30.04 in
Visibility 9.0 miles
Clouds Few 3400 ft
Scattered Clouds 6500 ft
Mostly Cloudy 11000 ft
Heat Index 78 °F
Dew Point 58 °F
Humidity 54%
Rainfall in
Snow Depth Not available.
5:19 AM 8:33 PM
Waning Gibbous, 52% visible
METAR KDEW 261853Z AUTO 10004KT 9SM -RA FEW034 SCT065 BKN110 21/17 A3006 RMK AO2 LTG DSNT SE AND W RAB06E28B39 TSE32 SLP171 P0020 T02060167

10-Day Weather Forecast

Almanac

Astronomy

Jul. 26, 2016 Rise Set
Actual Time
Civil Twilight
Nautical Twilight
Astronomical Twilight
Moon
Length of Visible Light
Length of Day
Tomorrow will be .
, % of the Moon is Illuminated

Today's Extremes

State Highs State Lows

Community

WunderPhotos

Upload Photos

1,927,662 photos uploaded!

WunderBlog® & News

Nearby

Air Quality

  Air Quality AQ Index Pollutant
Not available.

Snow Depth

Station Depth Elevation

Earthquake Activity

City Distance Mag. Time & Date
Minimum magnitude displayed is 2.5.

Coastal Water Temperatures

Place Temperature

Stations

Nearby Weather Stations

Station Location Temp. Windchill Dew Point Humidity Wind Precip. Elev Updated Type
                   

Watches & Warnings

There are currently no watches in effect.